Time;durP1;ratioP1;P1;durP2;ratioP2;P2;SDS_P1;SDS_P2;PMS_P1;PMS_P2;Temp;Humidity;BMP_temperature;BMP_pressure;BME280_temperature;BME280_humidity;BME280_pressure;Samples;Min_cycle;Max_cycle;Signal;HPM_P1;HPM_P2
2021/10/21 00:00:56;;;;;;;;;;;9.20;37.70;;;;;;4360157;32;20039;-39
2021/10/21 00:03:22;;;;;;;;;;;9.20;37.80;;;;;;4360417;32;20025;-39
2021/10/21 00:05:48;;;;;;;;;;;9.20;37.70;;;;;;4359929;32;19977;-39
2021/10/21 00:08:14;;;;;;;;;;;9.30;37.80;;;;;;4359799;32;19962;-39
2021/10/21 00:10:43;;;;;;;;;;;9.30;37.80;;;;;;4359733;32;19966;-39
2021/10/21 00:13:09;;;;;;;;;;;9.40;37.60;;;;;;4359404;32;20062;-39
2021/10/21 00:15:35;;;;;;;;;;;9.40;37.60;;;;;;4360007;32;20406;-39
2021/10/21 00:18:02;;;;;;;;;;;9.40;37.40;;;;;;4359796;32;19955;-40
2021/10/21 00:20:28;;;;;;;;;;;9.40;37.10;;;;;;4359725;32;19979;-39
2021/10/21 00:22:54;;;;;;;;;;;9.40;37.10;;;;;;4359551;32;20111;-38
2021/10/21 00:25:20;;;;;;;;;;;9.40;36.90;;;;;;4359671;32;19978;-40
2021/10/21 00:27:46;;;;;;;;;;;9.40;37.10;;;;;;4359637;32;19966;-40
2021/10/21 00:30:13;;;;;;;;;;;9.40;37.30;;;;;;4359567;32;19967;-40
2021/10/21 00:32:39;;;;;;;;;;;9.40;37.30;;;;;;4359910;32;20054;-39
2021/10/21 00:35:05;;;;;;;;;;;9.50;37.40;;;;;;4359555;32;20473;-40
2021/10/21 00:37:32;;;;;;;;;;;9.50;37.50;;;;;;4359491;32;20392;-39
2021/10/21 00:39:58;;;;;;;;;;;9.50;37.60;;;;;;4359572;32;20012;-39
2021/10/21 00:42:24;;;;;;;;;;;9.60;38.40;;;;;;4359218;32;19967;-39
2021/10/21 00:44:50;;;;;;;;;;;9.50;38.10;;;;;;4345534;32;19969;-38
2021/10/21 00:47:17;;;;;;;;;;;9.50;38.60;;;;;;4345309;32;20388;-39
2021/10/21 00:49:43;;;;;;;;;;;9.50;39.00;;;;;;4359339;32;20049;-39
2021/10/21 00:52:09;;;;;;;;;;;9.40;39.00;;;;;;4359453;32;19954;-39
2021/10/21 00:54:36;;;;;;;;;;;9.40;39.10;;;;;;4359179;32;19958;-40
2021/10/21 00:57:03;;;;;;;;;;;9.30;39.20;;;;;;4359647;32;19981;-39
2021/10/21 00:59:29;;;;;;;;;;;9.30;39.50;;;;;;4359421;32;19981;-40
2021/10/21 01:01:56;;;;;;;;;;;9.30;39.80;;;;;;4332980;32;19959;-39
2021/10/21 01:04:23;;;;;;;;;;;9.20;40.10;;;;;;4345517;32;20123;-39
2021/10/21 01:06:49;;;;;;;;;;;9.20;40.20;;;;;;4359491;32;20399;-40
2021/10/21 01:09:15;;;;;;;;;;;9.20;40.30;;;;;;4359031;32;19974;-39
2021/10/21 01:11:42;;;;;;;;;;;9.20;40.60;;;;;;4345356;32;19965;-38
2021/10/21 01:14:08;;;;;;;;;;;9.10;40.90;;;;;;4358678;32;20000;-35
2021/10/21 01:16:39;;;;;;;;;;;9.10;41.20;;;;;;4359364;32;20089;-38
2021/10/21 01:19:14;;;;;;;;;;;9.00;41.60;;;;;;4345744;32;19969;-39
2021/10/21 01:21:42;;;;;;;;;;;9.00;41.90;;;;;;4345217;32;19958;-38
2021/10/21 01:24:08;;;;;;;;;;;8.90;42.30;;;;;;4358918;32;20010;-35
2021/10/21 01:26:34;;;;;;;;;;;8.90;43.10;;;;;;4358954;32;20434;-40
2021/10/21 01:29:01;;;;;;;;;;;8.80;43.50;;;;;;4358882;32;19967;-39
2021/10/21 01:31:27;;;;;;;;;;;8.80;43.90;;;;;;4358734;32;19962;-38
2021/10/21 01:33:53;;;;;;;;;;;8.70;43.90;;;;;;4358914;32;19960;-39
2021/10/21 01:36:19;;;;;;;;;;;8.70;44.30;;;;;;4358627;32;20075;-39
2021/10/21 01:38:46;;;;;;;;;;;8.60;44.60;;;;;;4358790;32;20073;-39
2021/10/21 01:41:12;;;;;;;;;;;8.60;44.80;;;;;;4358891;32;20063;-39
2021/10/21 01:43:44;;;;;;;;;;;8.60;44.80;;;;;;4359079;32;19974;-39
2021/10/21 01:46:10;;;;;;;;;;;8.50;44.80;;;;;;4358594;32;20018;-38
2021/10/21 01:48:37;;;;;;;;;;;8.50;44.90;;;;;;4358928;32;20418;-41
2021/10/21 01:51:03;;;;;;;;;;;8.50;44.90;;;;;;4332228;32;19970;-38
2021/10/21 01:53:30;;;;;;;;;;;8.50;45.10;;;;;;4344517;32;19990;-39
2021/10/21 01:55:56;;;;;;;;;;;8.50;45.30;;;;;;4358534;32;20414;-39
2021/10/21 01:58:22;;;;;;;;;;;8.40;45.50;;;;;;4358560;32;20090;-38
2021/10/21 02:00:48;;;;;;;;;;;8.40;45.40;;;;;;4344744;32;19974;-38
2021/10/21 02:03:15;;;;;;;;;;;8.40;45.60;;;;;;4344586;32;19992;-39
2021/10/21 02:05:41;;;;;;;;;;;8.40;45.90;;;;;;4358290;32;20383;-36
2021/10/21 02:08:07;;;;;;;;;;;8.30;46.20;;;;;;4358976;32;19966;-39
2021/10/21 02:10:33;;;;;;;;;;;8.30;46.30;;;;;;4358272;32;19990;-39
2021/10/21 02:13:00;;;;;;;;;;;8.30;46.40;;;;;;4358282;32;19970;-38
2021/10/21 02:15:26;;;;;;;;;;;8.30;46.30;;;;;;4358548;32;20041;-39
2021/10/21 02:17:52;;;;;;;;;;;8.30;46.30;;;;;;4358233;32;19973;-39
2021/10/21 02:20:18;;;;;;;;;;;8.30;46.20;;;;;;4358399;32;20000;-39
2021/10/21 02:22:50;;;;;;;;;;;8.30;46.30;;;;;;4358499;32;19963;-38
2021/10/21 02:25:16;;;;;;;;;;;8.40;46.50;;;;;;4358775;32;19969;-38
2021/10/21 02:27:42;;;;;;;;;;;8.40;46.50;;;;;;4358995;32;19989;-38
2021/10/21 02:30:09;;;;;;;;;;;8.30;46.60;;;;;;4358514;32;20000;-39
2021/10/21 02:32:36;;;;;;;;;;;8.30;47.00;;;;;;4358376;32;19974;-39
2021/10/21 02:35:03;;;;;;;;;;;8.30;46.90;;;;;;4358620;32;19994;-39
2021/10/21 02:37:29;;;;;;;;;;;8.30;47.10;;;;;;4361355;32;20128;-38
2021/10/21 02:39:55;;;;;;;;;;;8.30;46.90;;;;;;4361209;32;19970;-39
2021/10/21 02:42:21;;;;;;;;;;;8.30;46.80;;;;;;4361492;32;19985;-39
2021/10/21 02:44:47;;;;;;;;;;;8.30;46.60;;;;;;4360929;32;19963;-38
2021/10/21 02:47:14;;;;;;;;;;;8.30;46.50;;;;;;4374949;32;20460;-40
2021/10/21 02:49:40;;;;;;;;;;;8.40;46.70;;;;;;4375888;32;19977;-39
2021/10/21 02:52:06;;;;;;;;;;;8.40;46.80;;;;;;4375657;32;20024;-39
2021/10/21 02:54:33;;;;;;;;;;;8.40;46.80;;;;;;4375880;32;20046;-38
2021/10/21 02:56:59;;;;;;;;;;;8.40;46.80;;;;;;4376149;32;19978;-39
2021/10/21 02:59:25;;;;;;;;;;;8.40;46.60;;;;;;4375642;32;20456;-39
2021/10/21 03:01:51;;;;;;;;;;;8.40;46.60;;;;;;4375865;32;20030;-38
2021/10/21 03:04:18;;;;;;;;;;;8.50;46.50;;;;;;4361880;32;20047;-38
2021/10/21 03:06:44;;;;;;;;;;;8.50;47.00;;;;;;4375921;32;19972;-40
2021/10/21 03:09:10;;;;;;;;;;;8.50;46.10;;;;;;4376051;32;19989;-40
2021/10/21 03:11:36;;;;;;;;;;;8.50;45.60;;;;;;4375792;32;19973;-39
2021/10/21 03:14:02;;;;;;;;;;;8.60;45.30;;;;;;4375531;32;19955;-39
2021/10/21 03:16:34;;;;;;;;;;;8.50;45.20;;;;;;4375370;32;19966;-39
2021/10/21 03:19:03;;;;;;;;;;;8.50;45.00;;;;;;4375279;32;19962;-38
2021/10/21 03:21:30;;;;;;;;;;;8.60;44.80;;;;;;4375462;32;19985;-39
2021/10/21 03:23:56;;;;;;;;;;;8.60;44.40;;;;;;4375474;32;19965;-37
2021/10/21 03:26:23;;;;;;;;;;;8.60;44.70;;;;;;4375520;32;20042;-40
2021/10/21 03:28:50;;;;;;;;;;;8.60;45.00;;;;;;4375686;32;19978;-40
2021/10/21 03:31:16;;;;;;;;;;;8.70;44.80;;;;;;4375334;32;19962;-37
2021/10/21 03:33:43;;;;;;;;;;;8.70;44.70;;;;;;4361963;32;19954;-39
2021/10/21 03:36:09;;;;;;;;;;;8.70;45.10;;;;;;4374905;32;19978;-39
2021/10/21 03:38:35;;;;;;;;;;;8.80;45.10;;;;;;4375532;32;20374;-39
2021/10/21 03:41:02;;;;;;;;;;;8.80;45.50;;;;;;4374969;32;20385;-40
2021/10/21 03:43:28;;;;;;;;;;;8.80;45.60;;;;;;4375199;32;19962;-39
2021/10/21 03:45:55;;;;;;;;;;;8.80;45.40;;;;;;4354393;32;20403;-39
2021/10/21 03:48:21;;;;;;;;;;;8.90;45.30;;;;;;4359543;32;19962;-41
2021/10/21 03:50:47;;;;;;;;;;;8.90;45.20;;;;;;4346334;32;19973;-38
2021/10/21 03:53:14;;;;;;;;;;;8.90;45.10;;;;;;4360210;32;20383;-41
2021/10/21 03:55:41;;;;;;;;;;;8.90;45.30;;;;;;4346151;32;20333;-40
2021/10/21 03:58:07;;;;;;;;;;;8.80;45.80;;;;;;4359940;32;19998;-40
2021/10/21 04:00:34;;;;;;;;;;;8.80;46.00;;;;;;4360275;32;19989;-40
2021/10/21 04:03:00;;;;;;;;;;;8.90;46.60;;;;;;4360116;32;19962;-39
2021/10/21 04:05:26;;;;;;;;;;;8.90;46.90;;;;;;4346319;32;19976;-39
2021/10/21 04:07:52;;;;;;;;;;;8.90;48.10;;;;;;4360036;32;19998;-38
2021/10/21 04:10:19;;;;;;;;;;;8.90;47.70;;;;;;4359938;32;20047;-38
2021/10/21 04:12:45;;;;;;;;;;;8.90;47.80;;;;;;4359728;32;19967;-39
2021/10/21 04:15:11;;;;;;;;;;;8.80;47.70;;;;;;4345743;32;19974;-40
2021/10/21 04:17:38;;;;;;;;;;;8.90;47.80;;;;;;4359971;32;19966;-39
2021/10/21 04:20:05;;;;;;;;;;;8.90;47.60;;;;;;4360056;32;20047;-40
2021/10/21 04:22:31;;;;;;;;;;;8.90;48.00;;;;;;4359250;32;19959;-39
2021/10/21 04:24:58;;;;;;;;;;;8.90;47.30;;;;;;4345995;32;19954;-39
2021/10/21 04:27:24;;;;;;;;;;;8.90;47.20;;;;;;4345836;32;19993;-39
2021/10/21 04:29:50;;;;;;;;;;;8.90;47.10;;;;;;4359432;32;20371;-39
2021/10/21 04:32:16;;;;;;;;;;;8.90;47.10;;;;;;4359591;32;19959;-40
2021/10/21 04:34:42;;;;;;;;;;;8.90;47.30;;;;;;4359704;32;19961;-39
2021/10/21 04:37:09;;;;;;;;;;;8.90;47.90;;;;;;4359729;32;19974;-40
2021/10/21 04:39:35;;;;;;;;;;;8.90;47.50;;;;;;4359195;32;19963;-40
2021/10/21 04:42:01;;;;;;;;;;;8.90;47.90;;;;;;4359581;32;19969;-40
2021/10/21 04:44:28;;;;;;;;;;;8.90;48.10;;;;;;4359795;32;20396;-39
2021/10/21 04:46:54;;;;;;;;;;;8.90;48.50;;;;;;4371658;32;20046;-38
2021/10/21 04:49:20;;;;;;;;;;;8.90;48.90;;;;;;4359940;32;19973;-37
2021/10/21 04:51:46;;;;;;;;;;;8.80;49.20;;;;;;4374316;32;19970;-40
2021/10/21 04:54:12;;;;;;;;;;;8.80;49.60;;;;;;4373901;32;19989;-39
2021/10/21 04:56:38;;;;;;;;;;;8.70;49.70;;;;;;4374315;32;20025;-39
2021/10/21 04:59:05;;;;;;;;;;;8.70;50.10;;;;;;4373601;32;20429;-39
2021/10/21 05:01:31;;;;;;;;;;;8.70;50.30;;;;;;4374220;32;19982;-39
2021/10/21 05:03:57;;;;;;;;;;;8.70;50.70;;;;;;4374254;32;19962;-40
2021/10/21 05:06:23;;;;;;;;;;;8.70;50.50;;;;;;4373793;32;19977;-39
2021/10/21 05:08:49;;;;;;;;;;;8.70;50.60;;;;;;4374155;32;19955;-40
2021/10/21 05:11:16;;;;;;;;;;;8.70;50.60;;;;;;4374052;32;20051;-40
2021/10/21 05:13:42;;;;;;;;;;;8.70;50.80;;;;;;4360159;32;20016;-39
2021/10/21 05:16:08;;;;;;;;;;;8.70;51.00;;;;;;4373619;32;20431;-40
2021/10/21 05:18:34;;;;;;;;;;;8.70;51.00;;;;;;4373920;32;19962;-39
2021/10/21 05:21:00;;;;;;;;;;;8.70;51.10;;;;;;4373912;32;19981;-39
2021/10/21 05:23:27;;;;;;;;;;;8.70;51.40;;;;;;4373872;32;19977;-38
2021/10/21 05:25:53;;;;;;;;;;;8.70;51.20;;;;;;4373389;32;20399;-39
2021/10/21 05:28:19;;;;;;;;;;;8.60;51.10;;;;;;4374145;32;20530;-40
2021/10/21 05:30:45;;;;;;;;;;;8.60;51.30;;;;;;4373829;32;19966;-39
2021/10/21 05:33:12;;;;;;;;;;;8.60;51.50;;;;;;4373562;32;19969;-39
2021/10/21 05:35:38;;;;;;;;;;;8.60;51.50;;;;;;4373668;32;20047;-40
2021/10/21 05:38:04;;;;;;;;;;;8.50;51.70;;;;;;4373552;32;19958;-39
2021/10/21 05:40:30;;;;;;;;;;;8.50;51.90;;;;;;4359766;32;19973;-37
2021/10/21 05:42:56;;;;;;;;;;;8.50;52.20;;;;;;4373582;32;19970;-39
2021/10/21 05:45:23;;;;;;;;;;;8.50;52.30;;;;;;4370841;32;19960;-39
2021/10/21 05:47:49;;;;;;;;;;;8.40;52.60;;;;;;4358660;32;19974;-39
2021/10/21 05:50:15;;;;;;;;;;;8.40;52.90;;;;;;4358144;32;20037;-40
2021/10/21 05:52:41;;;;;;;;;;;8.40;53.10;;;;;;4358642;32;20381;-39
2021/10/21 05:55:08;;;;;;;;;;;8.40;53.40;;;;;;4358062;32;20049;-40
2021/10/21 05:57:34;;;;;;;;;;;8.40;53.80;;;;;;4358183;32;19970;-40
2021/10/21 06:00:02;;;;;;;;;;;8.30;54.00;;;;;;4358638;32;19967;-38
2021/10/21 06:02:29;;;;;;;;;;;8.30;54.30;;;;;;4358293;32;19963;-38
2021/10/21 06:04:55;;;;;;;;;;;8.30;54.80;;;;;;4358572;32;19973;-38
2021/10/21 06:07:21;;;;;;;;;;;8.20;55.00;;;;;;4358979;32;20045;-39
2021/10/21 06:09:48;;;;;;;;;;;8.20;55.40;;;;;;4358433;32;20403;-38
2021/10/21 06:12:14;;;;;;;;;;;8.10;55.80;;;;;;4361317;32;19970;-40
2021/10/21 06:14:40;;;;;;;;;;;8.10;56.00;;;;;;4361210;32;19985;-39
2021/10/21 06:17:07;;;;;;;;;;;8.10;56.40;;;;;;4344058;33;20006;-39
2021/10/21 06:19:33;;;;;;;;;;;8.10;56.60;;;;;;4343757;33;20382;-38
2021/10/21 06:22:03;;;;;;;;;;;8.00;56.90;;;;;;4343895;33;20049;-39
2021/10/21 06:24:30;;;;;;;;;;;8.00;56.90;;;;;;4344100;33;19978;-40
2021/10/21 06:26:56;;;;;;;;;;;8.00;57.20;;;;;;4344284;33;20052;-38
2021/10/21 06:29:22;;;;;;;;;;;8.00;57.20;;;;;;4331631;33;20117;-38
2021/10/21 06:31:49;;;;;;;;;;;7.90;57.50;;;;;;4343490;33;19970;-39
2021/10/21 06:34:16;;;;;;;;;;;7.90;57.80;;;;;;4344104;33;20064;-40
2021/10/21 06:36:42;;;;;;;;;;;7.90;57.90;;;;;;4344178;33;19977;-39
2021/10/21 06:39:08;;;;;;;;;;;7.80;58.10;;;;;;4343826;33;19978;-40
2021/10/21 06:41:35;;;;;;;;;;;7.80;58.40;;;;;;4331263;33;20496;-39
2021/10/21 06:44:01;;;;;;;;;;;7.80;58.70;;;;;;4343601;33;20030;-38
2021/10/21 06:46:27;;;;;;;;;;;7.80;59.10;;;;;;4344054;33;19992;-37
2021/10/21 06:49:03;;;;;;;;;;;7.80;59.40;;;;;;4346133;33;19958;-39
2021/10/21 06:51:29;;;;;;;;;;;7.80;59.30;;;;;;4346289;32;19962;-38
2021/10/21 06:53:56;;;;;;;;;;;7.80;59.40;;;;;;4344640;33;19986;-38
2021/10/21 06:56:22;;;;;;;;;;;7.80;59.50;;;;;;4344810;33;19974;-39
2021/10/21 06:58:48;;;;;;;;;;;7.80;59.80;;;;;;4346047;32;20002;-40
2021/10/21 07:01:15;;;;;;;;;;;7.80;60.00;;;;;;4345960;32;19970;-40
2021/10/21 07:03:41;;;;;;;;;;;7.80;60.00;;;;;;4345861;32;20390;-40
2021/10/21 07:06:07;;;;;;;;;;;7.90;60.10;;;;;;4344422;33;20079;-39
2021/10/21 07:08:33;;;;;;;;;;;7.90;60.10;;;;;;4346083;32;20041;-38
2021/10/21 07:11:01;;;;;;;;;;;7.90;60.20;;;;;;4345457;33;20042;-39
2021/10/21 07:13:28;;;;;;;;;;;7.90;60.10;;;;;;4345804;32;20048;-40
2021/10/21 07:15:54;;;;;;;;;;;7.90;60.90;;;;;;4345808;32;20465;-39
2021/10/21 07:18:20;;;;;;;;;;;7.90;60.60;;;;;;4345499;33;20067;-39
2021/10/21 07:20:46;;;;;;;;;;;7.90;60.60;;;;;;4345721;32;20011;-40
2021/10/21 07:23:12;;;;;;;;;;;7.90;60.70;;;;;;4327964;33;20038;-40
2021/10/21 07:25:39;;;;;;;;;;;7.90;60.70;;;;;;4328629;33;20049;-40
2021/10/21 07:28:05;;;;;;;;;;;8.00;60.80;;;;;;4328396;33;20693;-39
2021/10/21 07:30:31;;;;;;;;;;;8.00;60.90;;;;;;4328419;33;19975;-38
2021/10/21 07:32:58;;;;;;;;;;;8.00;60.70;;;;;;4328360;33;19982;-38
2021/10/21 07:35:26;;;;;;;;;;;8.00;60.80;;;;;;4328179;33;19971;-39
2021/10/21 07:37:53;;;;;;;;;;;8.00;60.70;;;;;;4328327;33;20478;-38
2021/10/21 07:40:19;;;;;;;;;;;8.00;60.60;;;;;;4315772;33;19979;-39
2021/10/21 07:42:45;;;;;;;;;;;8.00;60.80;;;;;;4327796;33;19978;-39
2021/10/21 07:45:11;;;;;;;;;;;8.00;60.90;;;;;;4329591;33;20027;-38
2021/10/21 07:47:38;;;;;;;;;;;7.90;60.90;;;;;;4342452;33;20551;-39
2021/10/21 07:50:06;;;;;;;;;;;7.90;60.80;;;;;;4343000;33;19974;-38
2021/10/21 07:52:33;;;;;;;;;;;8.00;60.80;;;;;;4342630;33;19967;-38
2021/10/21 07:54:59;;;;;;;;;;;7.90;60.60;;;;;;4357134;32;20057;-40
2021/10/21 07:57:27;;;;;;;;;;;7.90;60.60;;;;;;4358579;32;20043;-39
2021/10/21 07:59:53;;;;;;;;;;;7.90;60.90;;;;;;4359933;32;19958;-39
2021/10/21 08:02:19;;;;;;;;;;;7.90;61.00;;;;;;4360027;32;19963;-40
2021/10/21 08:04:46;;;;;;;;;;;7.90;61.10;;;;;;4359124;32;20403;-40
2021/10/21 08:07:12;;;;;;;;;;;7.90;61.10;;;;;;4357516;32;20420;-39
2021/10/21 08:09:38;;;;;;;;;;;7.90;61.10;;;;;;4359750;32;20009;-38
2021/10/21 08:12:05;;;;;;;;;;;7.90;61.20;;;;;;4359443;32;19962;-39
2021/10/21 08:14:31;;;;;;;;;;;7.90;61.40;;;;;;4358272;32;19970;-39
2021/10/21 08:16:58;;;;;;;;;;;7.90;61.30;;;;;;4358334;32;20005;-39
2021/10/21 08:19:26;;;;;;;;;;;7.90;61.40;;;;;;4341917;33;20015;-40
2021/10/21 08:21:52;;;;;;;;;;;8.00;61.60;;;;;;4342501;33;20910;-40
2021/10/21 08:24:19;;;;;;;;;;;7.90;61.80;;;;;;4342471;33;20042;-39
2021/10/21 08:26:49;;;;;;;;;;;8.00;61.90;;;;;;4329874;33;19993;-39
2021/10/21 08:29:16;;;;;;;;;;;8.00;62.00;;;;;;4342456;33;19974;-39
2021/10/21 08:31:43;;;;;;;;;;;8.00;62.10;;;;;;4342488;33;20408;-38
2021/10/21 08:34:09;;;;;;;;;;;8.10;62.30;;;;;;4341515;32;20052;-39
2021/10/21 08:36:35;;;;;;;;;;;8.10;62.30;;;;;;4341709;33;20177;-40
2021/10/21 08:39:01;;;;;;;;;;;8.10;62.30;;;;;;4341895;33;19978;-39
2021/10/21 08:41:28;;;;;;;;;;;8.10;62.20;;;;;;4341970;33;19971;-38
2021/10/21 08:43:54;;;;;;;;;;;8.10;62.40;;;;;;4341755;33;19982;-38
2021/10/21 08:46:23;;;;;;;;;;;8.10;62.40;;;;;;4333126;33;20465;-37
2021/10/21 08:49:02;;;;;;;;;;;8.10;62.40;;;;;;4327340;33;20034;-38
2021/10/21 08:51:30;;;;;;;;;;;8.10;62.30;;;;;;4343050;33;20009;-38
2021/10/21 08:53:57;;;;;;;;;;;8.10;62.40;;;;;;4344234;32;19961;-38
2021/10/21 08:56:25;;;;;;;;;;;8.10;62.60;;;;;;4344060;32;19967;-37
2021/10/21 08:58:54;;;;;;;;;;;8.10;62.60;;;;;;4344343;32;19983;-37
2021/10/21 09:01:22;;;;;;;;;;;8.20;62.70;;;;;;4344407;32;19966;-38
2021/10/21 09:04:13;;;;;;;;;;;8.20;62.40;;;;;;4344018;32;20392;-37
2021/10/21 09:09:16;;;;;;;;;;;8.20;62.40;;;;;;4344005;32;19971;-37
2021/10/21 09:11:43;;;;;;;;;;;8.20;62.30;;;;;;4343698;32;20355;-37
2021/10/21 09:14:11;;;;;;;;;;;8.20;62.20;;;;;;4343924;32;19965;-37
2021/10/21 09:16:39;;;;;;;;;;;8.20;62.30;;;;;;4344064;32;19971;-37
2021/10/21 09:19:12;;;;;;;;;;;8.20;62.30;;;;;;4343932;32;19970;-37
2021/10/21 09:21:39;;;;;;;;;;;8.20;62.40;;;;;;4344223;32;19985;-38
2021/10/21 09:24:28;;;;;;;;;;;8.10;62.20;;;;;;4358410;32;19966;-38
2021/10/21 09:27:14;;;;;;;;;;;8.10;62.40;;;;;;4358326;32;20060;-37
2021/10/21 09:29:51;;;;;;;;;;;8.10;62.60;;;;;;4358831;32;20489;-38
2021/10/21 09:32:22;;;;;;;;;;;8.10;62.50;;;;;;4358246;32;20499;-37
2021/10/21 09:34:50;;;;;;;;;;;8.10;62.70;;;;;;4344395;32;20030;-37
2021/10/21 09:37:24;;;;;;;;;;;8.20;62.60;;;;;;4358367;32;20378;-38
2021/10/21 09:39:55;;;;;;;;;;;8.20;62.40;;;;;;4358241;32;20529;-37
2021/10/21 09:42:44;;;;;;;;;;;8.20;62.40;;;;;;4358475;32;19981;-37
2021/10/21 09:45:15;;;;;;;;;;;8.20;62.50;;;;;;4359598;32;19977;-35
2021/10/21 09:47:44;;;;;;;;;;;8.20;62.60;;;;;;4373515;32;20078;-38
2021/10/21 09:50:24;;;;;;;;;;;8.20;62.40;;;;;;4373158;32;19962;-38
2021/10/21 09:53:14;;;;;;;;;;;8.20;62.40;;;;;;4373239;32;20034;-39
2021/10/21 09:55:45;;;;;;;;;;;8.20;62.70;;;;;;4373402;32;19981;-38
2021/10/21 09:58:13;;;;;;;;;;;8.20;62.70;;;;;;4373201;32;20441;-40
2021/10/21 10:00:41;;;;;;;;;;;8.20;62.80;;;;;;4373550;32;19970;-39
2021/10/21 10:03:19;;;;;;;;;;;8.20;62.90;;;;;;4373327;32;19989;-39
2021/10/21 10:05:48;;;;;;;;;;;8.20;62.90;;;;;;4373259;32;20029;-38
2021/10/21 10:08:18;;;;;;;;;;;8.20;62.90;;;;;;4373411;32;19981;-38
2021/10/21 10:10:48;;;;;;;;;;;8.20;63.00;;;;;;4372922;32;19974;-39
2021/10/21 10:13:15;;;;;;;;;;;8.30;63.10;;;;;;4372681;32;19996;-39
2021/10/21 10:15:45;;;;;;;;;;;8.30;63.10;;;;;;4373261;32;20086;-39
2021/10/21 10:18:22;;;;;;;;;;;8.30;63.10;;;;;;4373269;32;19974;-39
2021/10/21 10:20:52;;;;;;;;;;;8.30;63.20;;;;;;4373006;32;19985;-38
2021/10/21 10:23:19;;;;;;;;;;;8.30;63.20;;;;;;4372760;32;20382;-40
2021/10/21 10:25:50;;;;;;;;;;;8.30;63.40;;;;;;4346694;32;19962;-39
2021/10/21 10:28:16;;;;;;;;;;;8.30;63.40;;;;;;4372912;32;20354;-40
2021/10/21 10:30:48;;;;;;;;;;;8.30;63.30;;;;;;4359025;32;20033;-42
2021/10/21 10:33:43;;;;;;;;;;;8.30;63.30;;;;;;4372908;32;20406;-42
2021/10/21 10:36:21;;;;;;;;;;;8.20;63.10;;;;;;4373130;32;19965;-40
2021/10/21 10:38:48;;;;;;;;;;;8.20;63.50;;;;;;4372744;32;19976;-42
2021/10/21 10:41:32;;;;;;;;;;;8.20;63.60;;;;;;4373210;32;19988;-42
2021/10/21 10:43:58;;;;;;;;;;;8.20;63.50;;;;;;4348605;32;20030;-43
2021/10/21 10:46:53;;;;;;;;;;;8.20;63.60;;;;;;4363483;32;19996;-42
2021/10/21 10:49:40;;;;;;;;;;;8.30;63.60;;;;;;4356604;32;19966;-41
2021/10/21 10:52:16;;;;;;;;;;;8.30;63.80;;;;;;4358108;32;20078;-42
2021/10/21 10:54:52;;;;;;;;;;;8.30;63.90;;;;;;4358076;32;20035;-44
2021/10/21 10:57:24;;;;;;;;;;;8.30;63.50;;;;;;4359917;32;19970;-42
2021/10/21 10:59:57;;;;;;;;;;;8.30;63.40;;;;;;4361100;32;19969;-43
2021/10/21 11:02:27;;;;;;;;;;;8.30;63.30;;;;;;4360761;32;19975;-43
2021/10/21 11:07:30;;;;;;;;;;;8.30;63.40;;;;;;4360524;32;19985;-43
2021/10/21 11:10:29;;;;;;;;;;;8.30;63.40;;;;;;4360701;32;19986;-42
2021/10/21 11:12:58;;;;;;;;;;;8.40;63.30;;;;;;4348738;32;20398;-44
2021/10/21 11:15:34;;;;;;;;;;;8.40;63.40;;;;;;4360817;32;19985;-44
2021/10/21 11:18:01;;;;;;;;;;;8.40;63.30;;;;;;4360423;32;19962;-44
2021/10/21 11:20:27;;;;;;;;;;;8.40;63.50;;;;;;4347013;32;19970;-44
2021/10/21 11:23:04;;;;;;;;;;;8.40;63.60;;;;;;4360465;32;20058;-43
2021/10/21 11:25:32;;;;;;;;;;;8.50;63.60;;;;;;4360783;32;20042;-43
2021/10/21 11:27:58;;;;;;;;;;;8.50;63.50;;;;;;4360096;32;20440;-43
2021/10/21 11:30:25;;;;;;;;;;;8.50;63.40;;;;;;4346561;32;19969;-42
2021/10/21 11:32:52;;;;;;;;;;;8.50;63.20;;;;;;4346974;32;20059;-41
2021/10/21 11:35:20;;;;;;;;;;;8.50;63.20;;;;;;4346549;32;19966;-41
2021/10/21 11:37:48;;;;;;;;;;;8.60;63.30;;;;;;4360195;32;19974;-41
2021/10/21 11:40:34;;;;;;;;;;;8.60;63.30;;;;;;4360287;32;19970;-42
2021/10/21 11:43:03;;;;;;;;;;;8.60;63.10;;;;;;4360565;32;19959;-43
2021/10/21 11:45:34;;;;;;;;;;;8.50;63.10;;;;;;4363731;32;20033;-41
2021/10/21 11:48:06;;;;;;;;;;;8.60;63.50;;;;;;4375025;32;19974;-41
2021/10/21 11:50:37;;;;;;;;;;;8.60;63.50;;;;;;4374640;32;20052;-41
2021/10/21 11:53:04;;;;;;;;;;;8.70;63.50;;;;;;4375006;32;19982;-41
2021/10/21 11:55:30;;;;;;;;;;;8.70;63.40;;;;;;4375109;32;19951;-40
2021/10/21 11:57:58;;;;;;;;;;;8.70;63.30;;;;;;4374784;32;20487;-40
2021/10/21 12:00:25;;;;;;;;;;;8.80;63.20;;;;;;4374771;32;20134;-41
2021/10/21 12:02:56;;;;;;;;;;;8.80;63.20;;;;;;4375150;32;19970;-40
2021/10/21 12:05:30;;;;;;;;;;;8.80;63.40;;;;;;4375016;32;19970;-42
2021/10/21 12:07:57;;;;;;;;;;;8.80;63.30;;;;;;4373963;32;19966;-42
2021/10/21 12:10:30;;;;;;;;;;;8.80;63.30;;;;;;4374765;32;19970;-41
2021/10/21 12:12:57;;;;;;;;;;;8.80;63.40;;;;;;4374800;32;20042;-42
2021/10/21 12:15:24;;;;;;;;;;;8.80;63.50;;;;;;4374492;32;20045;-40
2021/10/21 12:17:50;;;;;;;;;;;8.80;63.60;;;;;;4374679;32;19966;-42
2021/10/21 12:20:46;;;;;;;;;;;8.90;63.60;;;;;;4360922;32;20387;-43
2021/10/21 12:23:20;;;;;;;;;;;8.90;63.70;;;;;;4357999;32;20046;-41
2021/10/21 12:25:50;;;;;;;;;;;8.90;63.70;;;;;;4359141;32;20075;-40
2021/10/21 12:28:16;;;;;;;;;;;8.90;63.80;;;;;;4359821;32;19990;-40
2021/10/21 12:30:42;;;;;;;;;;;8.90;63.90;;;;;;4359858;32;20379;-41
2021/10/21 12:33:13;;;;;;;;;;;8.90;64.00;;;;;;4359241;32;19990;-41
2021/10/21 12:36:18;;;;;;;;;;;8.90;64.00;;;;;;4359803;32;19978;-41
2021/10/21 12:38:45;;;;;;;;;;;8.90;63.90;;;;;;4312826;33;20394;-41
2021/10/21 12:41:11;;;;;;;;;;;8.90;64.00;;;;;;4312248;33;20463;-42
2021/10/21 12:43:37;;;;;;;;;;;8.90;64.10;;;;;;4312497;33;20002;-42
2021/10/21 12:46:05;;;;;;;;;;;9.00;64.10;;;;;;4305673;33;20553;-42
2021/10/21 12:48:34;;;;;;;;;;;9.00;64.00;;;;;;4286064;33;19968;-43
2021/10/21 12:51:12;;;;;;;;;;;9.00;64.10;;;;;;4298355;33;19992;-43
2021/10/21 12:53:39;;;;;;;;;;;9.00;64.10;;;;;;4297914;33;20002;-42
2021/10/21 12:56:16;;;;;;;;;;;9.10;64.80;;;;;;4285895;33;20094;-43
2021/10/21 12:58:44;;;;;;;;;;;9.10;64.00;;;;;;4298019;33;20466;-42
2021/10/21 13:01:10;;;;;;;;;;;9.10;64.00;;;;;;4298132;33;19975;-42
2021/10/21 13:03:40;;;;;;;;;;;9.20;64.10;;;;;;4297729;33;20402;-41
2021/10/21 13:06:06;;;;;;;;;;;9.20;64.10;;;;;;4297750;33;20417;-42
2021/10/21 13:08:32;;;;;;;;;;;9.20;64.00;;;;;;4297453;33;20066;-43
2021/10/21 13:11:01;;;;;;;;;;;9.30;64.30;;;;;;4297715;33;19983;-43
2021/10/21 13:13:29;;;;;;;;;;;9.30;64.40;;;;;;4293856;33;19967;-43
2021/10/21 13:15:56;;;;;;;;;;;9.30;64.30;;;;;;4344261;32;20020;-43
2021/10/21 13:18:22;;;;;;;;;;;9.40;64.30;;;;;;4344110;32;20493;-42
2021/10/21 13:20:48;;;;;;;;;;;9.40;64.30;;;;;;4344442;32;20415;-41
2021/10/21 13:23:15;;;;;;;;;;;9.40;64.20;;;;;;4342272;33;19974;-42
2021/10/21 13:25:41;;;;;;;;;;;9.50;64.20;;;;;;4344146;32;19967;-42
2021/10/21 13:28:07;;;;;;;;;;;9.50;64.20;;;;;;4343742;32;19994;-40
2021/10/21 13:30:34;;;;;;;;;;;9.50;64.00;;;;;;4343548;32;19974;-41
2021/10/21 13:33:00;;;;;;;;;;;9.50;63.90;;;;;;4343665;32;20042;-42
2021/10/21 13:35:26;;;;;;;;;;;9.50;63.90;;;;;;4343631;32;19983;-41
2021/10/21 13:37:54;;;;;;;;;;;9.50;63.80;;;;;;4343598;32;20479;-41
2021/10/21 13:40:21;;;;;;;;;;;9.50;63.70;;;;;;4343760;32;20050;-42
2021/10/21 13:42:48;;;;;;;;;;;9.50;63.80;;;;;;4343782;32;20399;-40
2021/10/21 13:45:14;;;;;;;;;;;9.50;63.90;;;;;;4345742;32;21228;-41
2021/10/21 13:47:41;;;;;;;;;;;9.60;64.00;;;;;;4358175;32;20071;-42
2021/10/21 13:50:07;;;;;;;;;;;9.60;63.90;;;;;;4358100;32;19982;-41
2021/10/21 13:52:33;;;;;;;;;;;9.60;63.90;;;;;;4358260;32;19969;-42
2021/10/21 13:55:00;;;;;;;;;;;9.60;64.00;;;;;;4358126;32;20394;-41
2021/10/21 13:57:27;;;;;;;;;;;9.60;64.00;;;;;;4358438;32;19972;-42
2021/10/21 13:59:54;;;;;;;;;;;9.70;64.20;;;;;;4358546;32;19980;-42
2021/10/21 14:02:22;;;;;;;;;;;9.70;64.20;;;;;;4358126;32;19962;-41
2021/10/21 14:04:51;;;;;;;;;;;9.70;64.00;;;;;;4358053;32;20057;-40
2021/10/21 14:07:18;;;;;;;;;;;9.70;64.10;;;;;;4356598;32;20051;-40
2021/10/21 14:09:45;;;;;;;;;;;9.80;64.10;;;;;;4358058;32;20083;-41
2021/10/21 14:12:12;;;;;;;;;;;9.80;64.10;;;;;;4358091;32;19998;-41
2021/10/21 14:14:38;;;;;;;;;;;9.80;64.10;;;;;;4357789;32;20431;-40
2021/10/21 14:17:04;;;;;;;;;;;9.90;64.00;;;;;;4358280;32;19974;-40
2021/10/21 14:19:30;;;;;;;;;;;10.00;63.80;;;;;;4358413;32;20058;-40
2021/10/21 14:21:57;;;;;;;;;;;10.00;63.80;;;;;;4358888;32;19985;-41
2021/10/21 14:24:23;;;;;;;;;;;10.00;63.60;;;;;;4359383;32;19986;-41
2021/10/21 14:26:50;;;;;;;;;;;10.10;63.60;;;;;;4373343;32;20043;-41
2021/10/21 14:29:18;;;;;;;;;;;10.10;63.60;;;;;;4373412;32;19968;-41
2021/10/21 14:31:45;;;;;;;;;;;10.20;63.50;;;;;;4374304;32;19968;-43
2021/10/21 14:34:12;;;;;;;;;;;10.20;63.50;;;;;;4362445;32;19965;-41
2021/10/21 14:36:39;;;;;;;;;;;10.20;63.40;;;;;;4375824;32;19969;-41
2021/10/21 14:39:06;;;;;;;;;;;10.30;63.40;;;;;;4375614;32;20049;-40